地図

経路データ

SID SEASON NUMBER BASIN SUBBASIN NAME ISO_TIME NATURE LAT LON WMO_WIND WMO_PRES WMO_AGENCY TRACK_TYPE DIST2LAND LANDFALL IFLAG USA_AGENCY USA_ATCF_ID USA_LAT USA_LON USA_RECORD USA_STATUS USA_WIND USA_PRES USA_SSHS USA_R34_NE USA_R34_SE USA_R34_SW USA_R34_NW USA_R50_NE USA_R50_SE USA_R50_SW USA_R50_NW USA_R64_NE USA_R64_SE USA_R64_SW USA_R64_NW USA_POCI USA_ROCI USA_RMW USA_EYE TOKYO_LAT TOKYO_LON TOKYO_GRADE TOKYO_WIND TOKYO_PRES TOKYO_R50_DIR TOKYO_R50_LONG TOKYO_R50_SHORT TOKYO_R30_DIR TOKYO_R30_LONG TOKYO_R30_SHORT TOKYO_LAND CMA_LAT CMA_LON CMA_CAT CMA_WIND CMA_PRES HKO_LAT HKO_LON HKO_CAT HKO_WIND HKO_PRES NEWDELHI_LAT NEWDELHI_LON NEWDELHI_GRADE NEWDELHI_WIND NEWDELHI_PRES NEWDELHI_CI NEWDELHI_DP NEWDELHI_POCI REUNION_LAT REUNION_LON REUNION_TYPE REUNION_WIND REUNION_PRES REUNION_TNUM REUNION_CI REUNION_RMW REUNION_R34_NE REUNION_R34_SE REUNION_R34_SW REUNION_R34_NW REUNION_R50_NE REUNION_R50_SE REUNION_R50_SW REUNION_R50_NW REUNION_R64_NE REUNION_R64_SE REUNION_R64_SW REUNION_R64_NW BOM_LAT BOM_LON BOM_TYPE BOM_WIND BOM_PRES BOM_TNUM BOM_CI BOM_RMW BOM_R34_NE BOM_R34_SE BOM_R34_SW BOM_R34_NW BOM_R50_NE BOM_R50_SE BOM_R50_SW BOM_R50_NW BOM_R64_NE BOM_R64_SE BOM_R64_SW BOM_R64_NW BOM_ROCI BOM_POCI BOM_EYE BOM_POS_METHOD BOM_PRES_METHOD NADI_LAT NADI_LON NADI_CAT NADI_WIND NADI_PRES WELLINGTON_LAT WELLINGTON_LON WELLINGTON_WIND WELLINGTON_PRES DS824_LAT DS824_LON DS824_STAGE DS824_WIND DS824_PRES TD9636_LAT TD9636_LON TD9636_STAGE TD9636_WIND TD9636_PRES TD9635_LAT TD9635_LON TD9635_WIND TD9635_PRES TD9635_ROCI NEUMANN_LAT NEUMANN_LON NEUMANN_CLASS NEUMANN_WIND NEUMANN_PRES MLC_LAT MLC_LON MLC_CLASS MLC_WIND MLC_PRES USA_GUST BOM_GUST BOM_GUST_PER REUNION_GUST REUNION_GUST_PER USA_SEAHGT USA_SEARAD_NE USA_SEARAD_SE USA_SEARAD_SW USA_SEARAD_NW STORM_SPEED STORM_DIR
1900273N09124 1900 31 WP MM NOT_NAMED 1900-09-29 16:00:00 NR 9.00000 124.100 main 55 55 __________O___ -1 9.00000 124.100 3 1 89
1900273N09124 1900 31 WP MM NOT_NAMED 1900-09-29 18:00:00 NR 9.00058 124.130 main 55 55 __________P___ -1 9.00058 124.130 3 0 70
1900273N09124 1900 31 WP MM NOT_NAMED 1900-09-29 21:00:00 NR 9.01375 124.139 main 55 55 __________P___ -1 9.01375 124.139 3 1 307
1900273N09124 1900 31 WP MM NOT_NAMED 1900-09-30 00:00:00 NR 9.05853 124.055 main 56 46 __________P___ -1 9.05853 124.055 3 3 294
1900273N09124 1900 31 WP MM NOT_NAMED 1900-09-30 03:00:00 NR 9.15380 123.821 main 46 45 __________P___ -1 9.15380 123.821 3 6 292
1900273N09124 1900 31 WP MM NOT_NAMED 1900-09-30 04:00:00 NR 9.20000 123.700 main 45 10 __________O___ -1 9.20000 123.700 4 9 291
1900273N09124 1900 31 WP MM NOT_NAMED 1900-09-30 06:00:00 NR 9.31583 123.388 main 10 0 __________P___ -1 9.31583 123.388 4 12 290
1900273N09124 1900 31 WP MM NOT_NAMED 1900-09-30 09:00:00 NR 9.53362 122.787 main 0 0 __________P___ -1 9.53362 122.787 4 14 290
1900273N09124 1900 31 WP MM NOT_NAMED 1900-09-30 12:00:00 NR 9.77883 122.101 main 32 32 __________P___ -1 9.77883 122.101 4 14 290
1900273N09124 1900 31 WP MM NOT_NAMED 1900-09-30 15:00:00 NR 10.0234 121.414 main 70 70 __________P___ -1 10.0234 121.414 4 14 290
1900273N09124 1900 31 WP MM NOT_NAMED 1900-09-30 16:00:00 NR 10.1000 121.200 main 83 83 __________O___ -1 10.1000 121.200 4 12 290
1900273N09124 1900 31 WP MM NOT_NAMED 1900-09-30 18:00:00 NR 10.2303 120.846 main 122 77 __________P___ -1 10.2303 120.846 4 11 291
1900273N09124 1900 31 WP MM NOT_NAMED 1900-09-30 21:00:00 NR 10.4136 120.354 main 77 24 __________P___ -1 10.4136 120.354 4 10 291
1900273N09124 1900 31 WP MM NOT_NAMED 1900-10-01 00:00:00 NR 10.5849 119.893 main 24 0 __________P___ -1 10.5849 119.893 4 10 291
1900273N09124 1900 31 WP MM NOT_NAMED 1900-10-01 03:00:00 NR 10.7473 119.448 main 0 0 __________P___ -1 10.7473 119.448 4 9 290
1900273N09124 1900 31 WP MM NOT_NAMED 1900-10-01 04:00:00 NR 10.8000 119.300 main 0 0 __________O___ -1 10.8000 119.300 4 9 289
1900273N09124 1900 31 WP MM NOT_NAMED 1900-10-01 06:00:00 NR 10.9029 118.994 main 32 32 __________P___ -1 10.9029 118.994 4 9 289
1900273N09124 1900 31 WP MM NOT_NAMED 1900-10-01 09:00:00 NR 11.0510 118.542 main 90 90 __________P___ -1 11.0510 118.542 4 9 288
1900273N09124 1900 31 WP MM NOT_NAMED 1900-10-01 12:00:00 NR 11.1972 118.094 main 135 135 __________P___ -1 11.1972 118.094 4 9 289
1900273N09124 1900 31 WP MM NOT_NAMED 1900-10-01 15:00:00 NR 11.3478 117.649 main 187 193 __________P___ -1 11.3478 117.649 4 9 289
1900273N09124 1900 31 WP MM NOT_NAMED 1900-10-01 16:00:00 NR 11.4000 117.500 main 203 203 __________O___ -1 11.4000 117.500 4 9 290
1900273N09124 1900 31 WP MM NOT_NAMED 1900-10-01 18:00:00 NR 11.5081 117.208 main 234 234 __________P___ -1 11.5081 117.208 4 9 291
1900273N09124 1900 31 WP MM NOT_NAMED 1900-10-01 21:00:00 NR 11.6766 116.770 main 282 291 __________P___ -1 11.6766 116.770 4 9 292
1900273N09124 1900 31 WP MM NOT_NAMED 1900-10-02 00:00:00 NR 11.8529 116.323 main 339 339 __________P___ -1 11.8529 116.323 4 10 292
1900273N09124 1900 31 WP MM NOT_NAMED 1900-10-02 03:00:00 NR 12.0369 115.860 main 376 382 __________P___ -1 12.0369 115.860 4 10 292
1900273N09124 1900 31 WP MM NOT_NAMED 1900-10-02 04:00:00 NR 12.1000 115.700 main 397 397 __________O___ -1 12.1000 115.700 4 11 291
1900273N09124 1900 31 WP MM NOT_NAMED 1900-10-02 06:00:00 NR 12.2224 115.357 main 426 433 __________P___ -1 12.2224 115.357 4 11 290
1900273N09124 1900 31 WP MM NOT_NAMED 1900-10-02 09:00:00 NR 12.4123 114.822 main 485 485 __________P___ -1 12.4123 114.822 4 11 290
1900273N09124 1900 31 WP MM NOT_NAMED 1900-10-02 12:00:00 NR 12.6122 114.285 main 521 466 __________P___ -1 12.6122 114.285 4 11 292
1900273N09124 1900 31 WP MM NOT_NAMED 1900-10-02 15:00:00 NR 12.8254 113.765 main 466 444 __________P___ -1 12.8254 113.765 4 11 293
1900273N09124 1900 31 WP MM NOT_NAMED 1900-10-02 16:00:00 NR 12.9000 113.600 main 444 412 __________O___ -1 12.9000 113.600 4 10 297
1900273N09124 1900 31 WP MM NOT_NAMED 1900-10-02 18:00:00 NR 13.0521 113.304 main 412 371 __________P___ -1 13.0521 113.304 4 10 299
1900273N09124 1900 31 WP MM NOT_NAMED 1900-10-02 21:00:00 NR 13.2932 112.886 main 371 331 __________P___ -1 13.2932 112.886 4 9 302
1900273N09124 1900 31 WP MM NOT_NAMED 1900-10-03 00:00:00 NR 13.5471 112.476 main 331 288 __________P___ -1 13.5471 112.476 4 10 302
1900273N09124 1900 31 WP MM NOT_NAMED 1900-10-03 03:00:00 NR 13.8106 112.050 main 288 280 __________P___ -1 13.8106 112.050 4 10 302
1900273N09124 1900 31 WP MM NOT_NAMED 1900-10-03 04:00:00 NR 13.9000 111.900 main 280 249 __________O___ -1 13.9000 111.900 4 11 300
1900273N09124 1900 31 WP MM NOT_NAMED 1900-10-03 06:00:00 NR 14.0856 111.565 main 249 191 __________P___ -1 14.0856 111.565 4 12 299
1900273N09124 1900 31 WP MM NOT_NAMED 1900-10-03 09:00:00 NR 14.3704 111.037 main 191 150 __________P___ -1 14.3704 111.037 4 12 299
1900273N09124 1900 31 WP MM NOT_NAMED 1900-10-03 12:00:00 NR 14.6518 110.498 main 150 99 __________P___ -1 14.6518 110.498 4 12 298
1900273N09124 1900 31 WP MM NOT_NAMED 1900-10-03 15:00:00 NR 14.9172 109.970 main 99 82 __________P___ -1 14.9172 109.970 4 11 297
1900273N09124 1900 31 WP MM NOT_NAMED 1900-10-03 16:00:00 NR 15.0000 109.800 main 82 58 __________O___ -1 15.0000 109.800 4 11 296
1900273N09124 1900 31 WP MM NOT_NAMED 1900-10-03 18:00:00 NR 15.1554 109.473 main 63 24 __________P___ -1 15.1554 109.473 4 10 296
1900273N09124 1900 31 WP MM NOT_NAMED 1900-10-03 21:00:00 NR 15.3669 109.009 main 24 0 __________P___ -1 15.3669 109.009 4 10 295
1900273N09124 1900 31 WP MM NOT_NAMED 1900-10-04 00:00:00 NR 15.5593 108.569 main 10 0 __________P___ -1 15.5593 108.569 4 9 294
1900273N09124 1900 31 WP MM NOT_NAMED 1900-10-04 03:00:00 NR 15.7407 108.141 main 0 0 __________P___ -1 15.7407 108.141 4 9 294
1900273N09124 1900 31 WP MM NOT_NAMED 1900-10-04 04:00:00 NR 15.8000 108.000 main 0 __________O___ -1 15.8000 108.000 7 9 294

デジタル台風データ・検索

IBTrACS Databaseについて

本データベースは、米国NOAAが公開する1842年以降の世界の熱帯低気圧のベストトラックデータアーカイブInternational Best Track Archive for Climate Stewardship (IBTrACS)を、ウェブで閲覧しやすい形式に変換したものです。

最終更新日:2021-12-01